sensor_id;sensor_type;location;lat;lon;timestamp;temperature;humidity
67557;DHT22;54387;53.526;49.300;2023-09-18T00:00:00;12.40;64.90
67557;DHT22;54387;53.526;49.300;2023-09-18T00:02:26;12.40;64.90
67557;DHT22;54387;53.526;49.300;2023-09-18T00:04:53;12.40;64.90
67557;DHT22;54387;53.526;49.300;2023-09-18T00:07:20;12.40;65.00
67557;DHT22;54387;53.526;49.300;2023-09-18T00:09:46;12.40;65.00
67557;DHT22;54387;53.526;49.300;2023-09-18T00:12:12;12.40;65.10
67557;DHT22;54387;53.526;49.300;2023-09-18T00:14:39;12.40;65.10
67557;DHT22;54387;53.526;49.300;2023-09-18T00:17:05;12.30;65.10
67557;DHT22;54387;53.526;49.300;2023-09-18T00:19:31;12.30;65.10
67557;DHT22;54387;53.526;49.300;2023-09-18T00:21:58;12.30;65.20
67557;DHT22;54387;53.526;49.300;2023-09-18T00:24:27;12.30;65.20
67557;DHT22;54387;53.526;49.300;2023-09-18T00:26:53;12.30;65.20
67557;DHT22;54387;53.526;49.300;2023-09-18T00:29:20;12.20;65.20
67557;DHT22;54387;53.526;49.300;2023-09-18T00:31:46;12.20;65.20
67557;DHT22;54387;53.526;49.300;2023-09-18T00:34:12;12.20;65.30
67557;DHT22;54387;53.526;49.300;2023-09-18T00:36:39;12.20;65.30
67557;DHT22;54387;53.526;49.300;2023-09-18T00:39:05;12.20;65.60
67557;DHT22;54387;53.526;49.300;2023-09-18T00:41:31;12.20;65.60
67557;DHT22;54387;53.526;49.300;2023-09-18T00:43:57;12.20;65.60
67557;DHT22;54387;53.526;49.300;2023-09-18T00:46:23;12.20;65.70
67557;DHT22;54387;53.526;49.300;2023-09-18T00:48:49;12.20;65.70
67557;DHT22;54387;53.526;49.300;2023-09-18T00:51:16;12.20;65.70
67557;DHT22;54387;53.526;49.300;2023-09-18T00:53:45;12.10;65.70
67557;DHT22;54387;53.526;49.300;2023-09-18T00:56:14;12.10;65.80
67557;DHT22;54387;53.526;49.300;2023-09-18T00:58:40;12.10;66.40
67557;DHT22;54387;53.526;49.300;2023-09-18T01:01:06;12.10;65.90
67557;DHT22;54387;53.526;49.300;2023-09-18T01:03:34;12.10;65.90
67557;DHT22;54387;53.526;49.300;2023-09-18T01:06:00;12.10;65.90
67557;DHT22;54387;53.526;49.300;2023-09-18T01:08:26;12.10;66.00
67557;DHT22;54387;53.526;49.300;2023-09-18T01:13:27;12.00;66.00
67557;DHT22;54387;53.526;49.300;2023-09-18T01:15:54;12.00;66.10
67557;DHT22;54387;53.526;49.300;2023-09-18T01:18:22;12.00;66.10
67557;DHT22;54387;53.526;49.300;2023-09-18T01:20:49;12.00;66.20
67557;DHT22;54387;53.526;49.300;2023-09-18T01:23:15;12.00;66.20
67557;DHT22;54387;53.526;49.300;2023-09-18T01:25:41;12.00;66.30
67557;DHT22;54387;53.526;49.300;2023-09-18T01:28:07;11.90;66.30
67557;DHT22;54387;53.526;49.300;2023-09-18T01:30:33;11.90;66.30
67557;DHT22;54387;53.526;49.300;2023-09-18T01:33:00;11.90;66.30
67557;DHT22;54387;53.526;49.300;2023-09-18T01:35:27;11.90;66.40
67557;DHT22;54387;53.526;49.300;2023-09-18T01:37:56;11.90;66.50
67557;DHT22;54387;53.526;49.300;2023-09-18T01:40:23;11.90;66.60
67557;DHT22;54387;53.526;49.300;2023-09-18T01:42:49;11.90;66.80
67557;DHT22;54387;53.526;49.300;2023-09-18T01:45:15;11.90;66.80
67557;DHT22;54387;53.526;49.300;2023-09-18T01:47:41;11.90;66.80
67557;DHT22;54387;53.526;49.300;2023-09-18T01:50:07;11.90;66.80
67557;DHT22;54387;53.526;49.300;2023-09-18T01:52:33;11.90;66.80
67557;DHT22;54387;53.526;49.300;2023-09-18T01:55:00;11.90;66.80
67557;DHT22;54387;53.526;49.300;2023-09-18T01:57:26;11.90;66.90
67557;DHT22;54387;53.526;49.300;2023-09-18T01:59:52;11.90;66.90
67557;DHT22;54387;53.526;49.300;2023-09-18T02:02:18;11.90;66.90
67557;DHT22;54387;53.526;49.300;2023-09-18T02:04:44;11.90;67.00
67557;DHT22;54387;53.526;49.300;2023-09-18T02:07:11;11.90;67.00
67557;DHT22;54387;53.526;49.300;2023-09-18T02:09:37;11.90;67.00
67557;DHT22;54387;53.526;49.300;2023-09-18T02:12:03;11.90;67.00
67557;DHT22;54387;53.526;49.300;2023-09-18T02:14:29;11.90;67.20
67557;DHT22;54387;53.526;49.300;2023-09-18T02:16:57;11.90;67.20
67557;DHT22;54387;53.526;49.300;2023-09-18T02:19:23;11.80;67.20
67557;DHT22;54387;53.526;49.300;2023-09-18T02:21:49;11.90;67.20
67557;DHT22;54387;53.526;49.300;2023-09-18T02:24:15;11.90;67.20
67557;DHT22;54387;53.526;49.300;2023-09-18T02:26:41;11.90;67.20
67557;DHT22;54387;53.526;49.300;2023-09-18T02:29:07;11.90;67.20
67557;DHT22;54387;53.526;49.300;2023-09-18T02:31:37;11.90;67.20
67557;DHT22;54387;53.526;49.300;2023-09-18T02:34:03;11.90;67.20
67557;DHT22;54387;53.526;49.300;2023-09-18T02:36:30;11.90;67.20
67557;DHT22;54387;53.526;49.300;2023-09-18T02:38:56;11.90;67.30
67557;DHT22;54387;53.526;49.300;2023-09-18T02:41:22;12.00;67.30
67557;DHT22;54387;53.526;49.300;2023-09-18T02:43:49;12.00;67.30
67557;DHT22;54387;53.526;49.300;2023-09-18T02:46:15;12.00;67.30
67557;DHT22;54387;53.526;49.300;2023-09-18T02:48:41;12.00;67.30
67557;DHT22;54387;53.526;49.300;2023-09-18T02:51:07;12.00;67.30
67557;DHT22;54387;53.526;49.300;2023-09-18T02:53:34;12.00;67.30
67557;DHT22;54387;53.526;49.300;2023-09-18T02:56:00;12.10;67.40
67557;DHT22;54387;53.526;49.300;2023-09-18T02:58:26;12.10;67.40
67557;DHT22;54387;53.526;49.300;2023-09-18T03:00:55;12.10;67.40
67557;DHT22;54387;53.526;49.300;2023-09-18T03:03:21;12.10;67.50
67557;DHT22;54387;53.526;49.300;2023-09-18T03:05:47;12.20;67.60
67557;DHT22;54387;53.526;49.300;2023-09-18T03:08:14;12.10;67.50
67557;DHT22;54387;53.526;49.300;2023-09-18T03:10:41;12.20;67.70
67557;DHT22;54387;53.526;49.300;2023-09-18T03:13:08;12.20;67.70
67557;DHT22;54387;53.526;49.300;2023-09-18T03:15:35;12.20;67.60
67557;DHT22;54387;53.526;49.300;2023-09-18T03:18:01;12.30;67.70
67557;DHT22;54387;53.526;49.300;2023-09-18T03:20:28;12.40;67.80
67557;DHT22;54387;53.526;49.300;2023-09-18T03:22:55;12.40;67.70
67557;DHT22;54387;53.526;49.300;2023-09-18T03:25:22;12.50;67.60
67557;DHT22;54387;53.526;49.300;2023-09-18T03:27:52;12.50;67.60
67557;DHT22;54387;53.526;49.300;2023-09-18T03:30:19;12.50;67.60
67557;DHT22;54387;53.526;49.300;2023-09-18T03:32:45;12.50;67.50
67557;DHT22;54387;53.526;49.300;2023-09-18T03:35:14;12.60;67.60
67557;DHT22;54387;53.526;49.300;2023-09-18T03:37:46;12.60;67.60
67557;DHT22;54387;53.526;49.300;2023-09-18T03:40:15;12.60;67.60
67557;DHT22;54387;53.526;49.300;2023-09-18T03:42:42;12.60;67.50
67557;DHT22;54387;53.526;49.300;2023-09-18T03:45:08;12.70;67.70
67557;DHT22;54387;53.526;49.300;2023-09-18T03:47:35;12.70;67.70
67557;DHT22;54387;53.526;49.300;2023-09-18T03:50:02;12.70;67.60
67557;DHT22;54387;53.526;49.300;2023-09-18T03:52:28;12.80;67.70
67557;DHT22;54387;53.526;49.300;2023-09-18T03:54:54;12.80;67.70
67557;DHT22;54387;53.526;49.300;2023-09-18T03:57:20;12.90;67.80
67557;DHT22;54387;53.526;49.300;2023-09-18T03:59:46;12.90;67.90
67557;DHT22;54387;53.526;49.300;2023-09-18T04:02:12;13.00;68.00
67557;DHT22;54387;53.526;49.300;2023-09-18T04:04:38;13.10;67.90
67557;DHT22;54387;53.526;49.300;2023-09-18T04:07:08;13.10;67.80
67557;DHT22;54387;53.526;49.300;2023-09-18T04:09:34;13.20;67.70
67557;DHT22;54387;53.526;49.300;2023-09-18T04:12:04;13.30;67.60
67557;DHT22;54387;53.526;49.300;2023-09-18T04:14:33;13.40;67.50
67557;DHT22;54387;53.526;49.300;2023-09-18T04:16:59;13.40;67.50
67557;DHT22;54387;53.526;49.300;2023-09-18T04:19:28;13.50;67.40
67557;DHT22;54387;53.526;49.300;2023-09-18T04:21:54;13.60;67.30
67557;DHT22;54387;53.526;49.300;2023-09-18T04:24:20;13.60;67.00
67557;DHT22;54387;53.526;49.300;2023-09-18T04:26:47;13.70;66.90
67557;DHT22;54387;53.526;49.300;2023-09-18T04:29:16;13.80;66.80
67557;DHT22;54387;53.526;49.300;2023-09-18T04:31:42;13.90;66.70
67557;DHT22;54387;53.526;49.300;2023-09-18T04:34:08;14.00;66.60
67557;DHT22;54387;53.526;49.300;2023-09-18T04:36:37;14.00;66.50
67557;DHT22;54387;53.526;49.300;2023-09-18T04:39:06;14.10;66.30
67557;DHT22;54387;53.526;49.300;2023-09-18T04:41:33;14.20;66.20
67557;DHT22;54387;53.526;49.300;2023-09-18T04:44:00;14.20;66.20
67557;DHT22;54387;53.526;49.300;2023-09-18T04:46:26;14.30;66.10
67557;DHT22;54387;53.526;49.300;2023-09-18T04:48:52;14.40;66.00
67557;DHT22;54387;53.526;49.300;2023-09-18T04:51:19;14.40;65.70
67557;DHT22;54387;53.526;49.300;2023-09-18T04:53:45;14.50;65.70
67557;DHT22;54387;53.526;49.300;2023-09-18T04:56:12;14.60;65.60
67557;DHT22;54387;53.526;49.300;2023-09-18T04:58:43;14.60;65.50
67557;DHT22;54387;53.526;49.300;2023-09-18T05:01:09;14.80;65.40
67557;DHT22;54387;53.526;49.300;2023-09-18T05:03:37;14.80;65.30
67557;DHT22;54387;53.526;49.300;2023-09-18T05:06:03;14.90;65.20
67557;DHT22;54387;53.526;49.300;2023-09-18T05:08:30;15.00;65.10
67557;DHT22;54387;53.526;49.300;2023-09-18T05:10:57;15.00;65.00
67557;DHT22;54387;53.526;49.300;2023-09-18T05:13:23;15.20;64.90
67557;DHT22;54387;53.526;49.300;2023-09-18T05:15:50;15.20;64.90
67557;DHT22;54387;53.526;49.300;2023-09-18T05:18:16;15.30;64.70
67557;DHT22;54387;53.526;49.300;2023-09-18T05:20:42;15.40;64.50
67557;DHT22;54387;53.526;49.300;2023-09-18T05:23:09;15.50;64.40
67557;DHT22;54387;53.526;49.300;2023-09-18T05:25:35;15.60;64.20
67557;DHT22;54387;53.526;49.300;2023-09-18T05:28:04;15.70;64.20
67557;DHT22;54387;53.526;49.300;2023-09-18T05:30:32;15.70;63.80
67557;DHT22;54387;53.526;49.300;2023-09-18T05:33:00;15.80;63.60
67557;DHT22;54387;53.526;49.300;2023-09-18T05:35:31;15.90;63.40
67557;DHT22;54387;53.526;49.300;2023-09-18T05:37:57;16.00;63.10
67557;DHT22;54387;53.526;49.300;2023-09-18T05:40:24;16.10;62.90
67557;DHT22;54387;53.526;49.300;2023-09-18T05:42:54;16.10;62.80
67557;DHT22;54387;53.526;49.300;2023-09-18T05:45:20;16.20;62.80
67557;DHT22;54387;53.526;49.300;2023-09-18T05:47:47;16.30;62.70
67557;DHT22;54387;53.526;49.300;2023-09-18T05:50:14;16.40;62.60
67557;DHT22;54387;53.526;49.300;2023-09-18T05:52:43;16.50;62.50
67557;DHT22;54387;53.526;49.300;2023-09-18T05:55:10;16.50;62.30
67557;DHT22;54387;53.526;49.300;2023-09-18T05:57:37;16.60;62.00
67557;DHT22;54387;53.526;49.300;2023-09-18T06:00:03;16.70;61.80
67557;DHT22;54387;53.526;49.300;2023-09-18T06:02:29;16.80;61.40
67557;DHT22;54387;53.526;49.300;2023-09-18T06:04:56;16.80;61.10
67557;DHT22;54387;53.526;49.300;2023-09-18T06:07:32;17.00;61.10
67557;DHT22;54387;53.526;49.300;2023-09-18T06:09:59;17.00;61.10
67557;DHT22;54387;53.526;49.300;2023-09-18T06:12:25;17.10;60.40
67557;DHT22;54387;53.526;49.300;2023-09-18T06:14:53;17.10;60.20
67557;DHT22;54387;53.526;49.300;2023-09-18T06:17:20;17.20;60.10
67557;DHT22;54387;53.526;49.300;2023-09-18T06:19:46;17.30;59.90
67557;DHT22;54387;53.526;49.300;2023-09-18T06:22:13;17.40;59.50
67557;DHT22;54387;53.526;49.300;2023-09-18T06:24:39;17.50;59.20
67557;DHT22;54387;53.526;49.300;2023-09-18T06:27:06;17.60;58.80
67557;DHT22;54387;53.526;49.300;2023-09-18T06:29:32;17.60;58.60
67557;DHT22;54387;53.526;49.300;2023-09-18T06:31:59;17.80;58.40
67557;DHT22;54387;53.526;49.300;2023-09-18T06:34:25;17.80;58.30
67557;DHT22;54387;53.526;49.300;2023-09-18T06:36:52;17.90;58.20
67557;DHT22;54387;53.526;49.300;2023-09-18T06:39:18;18.00;58.00
67557;DHT22;54387;53.526;49.300;2023-09-18T06:41:46;18.00;57.60
67557;DHT22;54387;53.526;49.300;2023-09-18T06:44:12;18.10;57.20
67557;DHT22;54387;53.526;49.300;2023-09-18T06:46:38;18.20;57.30
67557;DHT22;54387;53.526;49.300;2023-09-18T06:49:05;18.30;57.10
67557;DHT22;54387;53.526;49.300;2023-09-18T06:51:32;18.40;56.60
67557;DHT22;54387;53.526;49.300;2023-09-18T06:53:58;18.50;55.90
67557;DHT22;54387;53.526;49.300;2023-09-18T06:56:24;18.60;56.00
67557;DHT22;54387;53.526;49.300;2023-09-18T06:58:51;18.70;56.10
67557;DHT22;54387;53.526;49.300;2023-09-18T07:01:21;18.80;56.10
67557;DHT22;54387;53.526;49.300;2023-09-18T07:03:48;18.80;56.00
67557;DHT22;54387;53.526;49.300;2023-09-18T07:06:14;18.90;55.50
67557;DHT22;54387;53.526;49.300;2023-09-18T07:08:47;18.90;55.60
67557;DHT22;54387;53.526;49.300;2023-09-18T07:11:17;19.00;55.10
67557;DHT22;54387;53.526;49.300;2023-09-18T07:13:43;19.00;55.20
67557;DHT22;54387;53.526;49.300;2023-09-18T07:16:10;19.00;55.00
67557;DHT22;54387;53.526;49.300;2023-09-18T07:18:36;19.10;55.00
67557;DHT22;54387;53.526;49.300;2023-09-18T07:21:02;19.20;55.00
67557;DHT22;54387;53.526;49.300;2023-09-18T07:23:29;19.20;54.90
67557;DHT22;54387;53.526;49.300;2023-09-18T07:25:55;19.30;54.30
67557;DHT22;54387;53.526;49.300;2023-09-18T07:28:24;19.30;54.30
67557;DHT22;54387;53.526;49.300;2023-09-18T07:30:50;19.40;54.00
67557;DHT22;54387;53.526;49.300;2023-09-18T07:33:17;19.50;53.60
67557;DHT22;54387;53.526;49.300;2023-09-18T07:35:46;19.50;53.40
67557;DHT22;54387;53.526;49.300;2023-09-18T07:38:14;19.50;53.40
67557;DHT22;54387;53.526;49.300;2023-09-18T07:40:40;19.60;53.40
67557;DHT22;54387;53.526;49.300;2023-09-18T07:43:06;19.60;53.20
67557;DHT22;54387;53.526;49.300;2023-09-18T07:45:33;19.70;53.10
67557;DHT22;54387;53.526;49.300;2023-09-18T07:48:03;19.80;52.40
67557;DHT22;54387;53.526;49.300;2023-09-18T07:50:29;19.90;52.00
67557;DHT22;54387;53.526;49.300;2023-09-18T07:52:57;20.10;51.50
67557;DHT22;54387;53.526;49.300;2023-09-18T07:55:23;20.20;50.80
67557;DHT22;54387;53.526;49.300;2023-09-18T07:57:49;20.40;50.50
67557;DHT22;54387;53.526;49.300;2023-09-18T08:00:17;20.50;49.80
67557;DHT22;54387;53.526;49.300;2023-09-18T08:02:44;20.60;49.70
67557;DHT22;54387;53.526;49.300;2023-09-18T08:05:11;20.90;49.60
67557;DHT22;54387;53.526;49.300;2023-09-18T08:07:37;21.00;48.50
67557;DHT22;54387;53.526;49.300;2023-09-18T08:10:03;21.10;48.30
67557;DHT22;54387;53.526;49.300;2023-09-18T08:12:34;21.40;48.30
67557;DHT22;54387;53.526;49.300;2023-09-18T08:15:01;21.60;47.50
67557;DHT22;54387;53.526;49.300;2023-09-18T08:17:28;21.90;46.70
67557;DHT22;54387;53.526;49.300;2023-09-18T08:19:54;22.20;46.50
67557;DHT22;54387;53.526;49.300;2023-09-18T08:22:21;22.40;45.80
67557;DHT22;54387;53.526;49.300;2023-09-18T08:24:47;22.50;45.20
67557;DHT22;54387;53.526;49.300;2023-09-18T08:27:14;22.60;45.00
67557;DHT22;54387;53.526;49.300;2023-09-18T08:29:42;22.60;43.60
67557;DHT22;54387;53.526;49.300;2023-09-18T08:32:09;22.50;43.10
67557;DHT22;54387;53.526;49.300;2023-09-18T08:34:35;22.40;42.60
67557;DHT22;54387;53.526;49.300;2023-09-18T08:37:04;22.40;41.30
67557;DHT22;54387;53.526;49.300;2023-09-18T08:39:30;22.30;41.30
67557;DHT22;54387;53.526;49.300;2023-09-18T08:41:59;22.20;41.20
67557;DHT22;54387;53.526;49.300;2023-09-18T08:44:29;22.20;41.20
67557;DHT22;54387;53.526;49.300;2023-09-18T08:46:55;22.30;41.70
67557;DHT22;54387;53.526;49.300;2023-09-18T08:49:22;22.50;41.50
67557;DHT22;54387;53.526;49.300;2023-09-18T08:51:53;22.70;40.80
67557;DHT22;54387;53.526;49.300;2023-09-18T08:54:21;22.80;39.50
67557;DHT22;54387;53.526;49.300;2023-09-18T08:56:53;22.90;38.30
67557;DHT22;54387;53.526;49.300;2023-09-18T08:59:21;22.80;38.20
67557;DHT22;54387;53.526;49.300;2023-09-18T09:01:48;22.80;39.20
67557;DHT22;54387;53.526;49.300;2023-09-18T09:04:14;23.00;38.90
67557;DHT22;54387;53.526;49.300;2023-09-18T09:06:41;23.10;38.30
67557;DHT22;54387;53.526;49.300;2023-09-18T09:09:07;23.20;38.60
67557;DHT22;54387;53.526;49.300;2023-09-18T09:11:34;23.10;38.70
67557;DHT22;54387;53.526;49.300;2023-09-18T09:14:10;23.10;38.70
67557;DHT22;54387;53.526;49.300;2023-09-18T09:16:54;23.20;38.80
67557;DHT22;54387;53.526;49.300;2023-09-18T09:19:28;23.40;38.10
67557;DHT22;54387;53.526;49.300;2023-09-18T09:21:56;23.60;38.00
67557;DHT22;54387;53.526;49.300;2023-09-18T09:24:45;23.70;37.70
67557;DHT22;54387;53.526;49.300;2023-09-18T09:27:11;24.20;37.70
67557;DHT22;54387;53.526;49.300;2023-09-18T09:29:38;25.00;36.70
67557;DHT22;54387;53.526;49.300;2023-09-18T09:32:17;25.10;35.70
67557;DHT22;54387;53.526;49.300;2023-09-18T09:34:45;24.90;35.40
67557;DHT22;54387;53.526;49.300;2023-09-18T09:37:12;25.00;34.60
67557;DHT22;54387;53.526;49.300;2023-09-18T09:42:18;24.50;33.80
67557;DHT22;54387;53.526;49.300;2023-09-18T09:45:01;23.90;35.10
67557;DHT22;54387;53.526;49.300;2023-09-18T09:47:32;23.40;36.00
67557;DHT22;54387;53.526;49.300;2023-09-18T09:49:59;23.20;36.60
67557;DHT22;54387;53.526;49.300;2023-09-18T09:52:33;23.00;36.90
67557;DHT22;54387;53.526;49.300;2023-09-18T09:54:59;23.20;36.90
67557;DHT22;54387;53.526;49.300;2023-09-18T09:57:25;24.40;35.40
67557;DHT22;54387;53.526;49.300;2023-09-18T09:59:52;26.30;34.50
67557;DHT22;54387;53.526;49.300;2023-09-18T10:02:20;28.40;33.10
67557;DHT22;54387;53.526;49.300;2023-09-18T10:04:48;30.20;29.20
67557;DHT22;54387;53.526;49.300;2023-09-18T10:07:15;30.90;27.40
67557;DHT22;54387;53.526;49.300;2023-09-18T10:09:47;31.40;26.80
67557;DHT22;54387;53.526;49.300;2023-09-18T10:12:15;31.40;26.50
67557;DHT22;54387;53.526;49.300;2023-09-18T10:14:47;30.80;26.80
67557;DHT22;54387;53.526;49.300;2023-09-18T10:17:15;30.50;27.80
67557;DHT22;54387;53.526;49.300;2023-09-18T10:19:59;31.00;27.00
67557;DHT22;54387;53.526;49.300;2023-09-18T10:22:43;31.00;27.30
67557;DHT22;54387;53.526;49.300;2023-09-18T10:27:47;29.80;27.30
67557;DHT22;54387;53.526;49.300;2023-09-18T10:30:24;28.90;27.80
67557;DHT22;54387;53.526;49.300;2023-09-18T10:32:51;27.80;28.50
67557;DHT22;54387;53.526;49.300;2023-09-18T10:35:18;27.20;29.00
67557;DHT22;54387;53.526;49.300;2023-09-18T10:37:46;26.60;29.20
67557;DHT22;54387;53.526;49.300;2023-09-18T10:40:14;26.30;30.80
67557;DHT22;54387;53.526;49.300;2023-09-18T10:42:41;27.40;29.70
67557;DHT22;54387;53.526;49.300;2023-09-18T10:45:09;29.30;29.10
67557;DHT22;54387;53.526;49.300;2023-09-18T10:47:38;31.20;26.90
67557;DHT22;54387;53.526;49.300;2023-09-18T10:50:06;32.60;26.80
67557;DHT22;54387;53.526;49.300;2023-09-18T10:52:36;34.20;25.30
67557;DHT22;54387;53.526;49.300;2023-09-18T10:55:11;34.80;23.80
67557;DHT22;54387;53.526;49.300;2023-09-18T10:57:37;34.10;23.90
67557;DHT22;54387;53.526;49.300;2023-09-18T11:00:06;34.10;24.20
67557;DHT22;54387;53.526;49.300;2023-09-18T11:02:40;33.70;24.00
67557;DHT22;54387;53.526;49.300;2023-09-18T11:05:06;32.50;24.60
67557;DHT22;54387;53.526;49.300;2023-09-18T11:07:32;31.40;25.20
67557;DHT22;54387;53.526;49.300;2023-09-18T11:09:58;30.40;25.90
67557;DHT22;54387;53.526;49.300;2023-09-18T11:12:44;29.60;26.70
67557;DHT22;54387;53.526;49.300;2023-09-18T11:15:24;28.80;27.00
67557;DHT22;54387;53.526;49.300;2023-09-18T11:18:01;28.00;27.60
67557;DHT22;54387;53.526;49.300;2023-09-18T11:20:28;27.40;28.00
67557;DHT22;54387;53.526;49.300;2023-09-18T11:22:58;26.80;28.50
67557;DHT22;54387;53.526;49.300;2023-09-18T11:28:15;25.80;30.20
67557;DHT22;54387;53.526;49.300;2023-09-18T11:30:53;25.30;29.90
67557;DHT22;54387;53.526;49.300;2023-09-18T11:36:01;24.80;30.50
67557;DHT22;54387;53.526;49.300;2023-09-18T11:38:29;24.70;30.80
67557;DHT22;54387;53.526;49.300;2023-09-18T11:40:55;24.50;31.00
67557;DHT22;54387;53.526;49.300;2023-09-18T11:43:24;24.40;31.20
67557;DHT22;54387;53.526;49.300;2023-09-18T11:45:58;24.20;31.60
67557;DHT22;54387;53.526;49.300;2023-09-18T11:48:26;23.90;32.00
67557;DHT22;54387;53.526;49.300;2023-09-18T11:50:57;23.70;32.60
67557;DHT22;54387;53.526;49.300;2023-09-18T11:53:24;23.50;32.80
67557;DHT22;54387;53.526;49.300;2023-09-18T11:55:52;23.50;33.00
67557;DHT22;54387;53.526;49.300;2023-09-18T11:58:19;23.40;33.70
67557;DHT22;54387;53.526;49.300;2023-09-18T12:00:49;23.40;33.90
67557;DHT22;54387;53.526;49.300;2023-09-18T12:03:19;23.80;34.10
67557;DHT22;54387;53.526;49.300;2023-09-18T12:05:53;24.10;33.50
67557;DHT22;54387;53.526;49.300;2023-09-18T12:08:21;24.10;33.40
67557;DHT22;54387;53.526;49.300;2023-09-18T12:10:50;24.00;34.50
67557;DHT22;54387;53.526;49.300;2023-09-18T12:13:17;23.90;34.30
67557;DHT22;54387;53.526;49.300;2023-09-18T12:15:43;23.80;35.00
67557;DHT22;54387;53.526;49.300;2023-09-18T12:18:10;23.70;34.60
67557;DHT22;54387;53.526;49.300;2023-09-18T12:20:49;23.60;34.40
67557;DHT22;54387;53.526;49.300;2023-09-18T12:23:16;23.50;34.80
67557;DHT22;54387;53.526;49.300;2023-09-18T12:25:46;23.60;36.20
67557;DHT22;54387;53.526;49.300;2023-09-18T12:28:13;23.70;35.30
67557;DHT22;54387;53.526;49.300;2023-09-18T12:30:41;23.80;35.30
67557;DHT22;54387;53.526;49.300;2023-09-18T12:33:07;23.80;35.00
67557;DHT22;54387;53.526;49.300;2023-09-18T12:35:34;23.70;35.20
67557;DHT22;54387;53.526;49.300;2023-09-18T12:38:00;23.60;35.50
67557;DHT22;54387;53.526;49.300;2023-09-18T12:40:28;23.90;36.10
67557;DHT22;54387;53.526;49.300;2023-09-18T12:42:55;24.50;35.60
67557;DHT22;54387;53.526;49.300;2023-09-18T12:45:25;25.30;34.80
67557;DHT22;54387;53.526;49.300;2023-09-18T12:47:54;25.70;34.00
67557;DHT22;54387;53.526;49.300;2023-09-18T12:50:20;26.00;33.70
67557;DHT22;54387;53.526;49.300;2023-09-18T12:52:47;26.30;32.80
67557;DHT22;54387;53.526;49.300;2023-09-18T12:55:26;26.40;32.20
67557;DHT22;54387;53.526;49.300;2023-09-18T12:57:53;26.40;32.30
67557;DHT22;54387;53.526;49.300;2023-09-18T13:00:19;26.40;32.30
67557;DHT22;54387;53.526;49.300;2023-09-18T13:02:49;26.30;32.20
67557;DHT22;54387;53.526;49.300;2023-09-18T13:05:24;26.20;32.80
67557;DHT22;54387;53.526;49.300;2023-09-18T13:07:55;26.30;32.90
67557;DHT22;54387;53.526;49.300;2023-09-18T13:10:22;26.50;32.50
67557;DHT22;54387;53.526;49.300;2023-09-18T13:12:49;26.40;32.60
67557;DHT22;54387;53.526;49.300;2023-09-18T13:15:25;26.30;32.80
67557;DHT22;54387;53.526;49.300;2023-09-18T13:17:53;26.00;32.80
67557;DHT22;54387;53.526;49.300;2023-09-18T13:20:24;25.90;33.10
67557;DHT22;54387;53.526;49.300;2023-09-18T13:22:53;25.60;33.30
67557;DHT22;54387;53.526;49.300;2023-09-18T13:25:24;25.40;33.50
67557;DHT22;54387;53.526;49.300;2023-09-18T13:27:51;25.20;33.90
67557;DHT22;54387;53.526;49.300;2023-09-18T13:30:18;25.00;34.00
67557;DHT22;54387;53.526;49.300;2023-09-18T13:32:47;24.90;34.10
67557;DHT22;54387;53.526;49.300;2023-09-18T13:35:17;24.80;34.30
67557;DHT22;54387;53.526;49.300;2023-09-18T13:37:43;24.70;34.50
67557;DHT22;54387;53.526;49.300;2023-09-18T13:40:10;24.80;34.70
67557;DHT22;54387;53.526;49.300;2023-09-18T13:42:36;25.00;34.70
67557;DHT22;54387;53.526;49.300;2023-09-18T13:45:03;25.20;34.30
67557;DHT22;54387;53.526;49.300;2023-09-18T13:47:30;25.10;34.00
67557;DHT22;54387;53.526;49.300;2023-09-18T13:49:56;24.90;34.10
67557;DHT22;54387;53.526;49.300;2023-09-18T13:52:31;24.60;34.40
67557;DHT22;54387;53.526;49.300;2023-09-18T13:54:57;24.20;34.80
67557;DHT22;54387;53.526;49.300;2023-09-18T13:57:24;23.80;35.00
67557;DHT22;54387;53.526;49.300;2023-09-18T13:59:50;23.50;35.30
67557;DHT22;54387;53.526;49.300;2023-09-18T14:02:17;23.20;35.80
67557;DHT22;54387;53.526;49.300;2023-09-18T14:04:43;22.90;36.10
67557;DHT22;54387;53.526;49.300;2023-09-18T14:07:09;22.60;36.40
67557;DHT22;54387;53.526;49.300;2023-09-18T14:09:36;22.40;36.70
67557;DHT22;54387;53.526;49.300;2023-09-18T14:12:03;22.30;36.90
67557;DHT22;54387;53.526;49.300;2023-09-18T14:14:29;22.10;37.20
67557;DHT22;54387;53.526;49.300;2023-09-18T14:16:55;22.00;37.40
67557;DHT22;54387;53.526;49.300;2023-09-18T14:19:21;21.80;37.60
67557;DHT22;54387;53.526;49.300;2023-09-18T14:21:47;21.60;37.80
67557;DHT22;54387;53.526;49.300;2023-09-18T14:24:15;21.40;38.40
67557;DHT22;54387;53.526;49.300;2023-09-18T14:26:44;21.20;38.30
67557;DHT22;54387;53.526;49.300;2023-09-18T14:29:10;21.10;38.60
67557;DHT22;54387;53.526;49.300;2023-09-18T14:31:36;21.00;38.80
67557;DHT22;54387;53.526;49.300;2023-09-18T14:34:03;20.90;39.00
67557;DHT22;54387;53.526;49.300;2023-09-18T14:36:34;20.80;39.60
67557;DHT22;54387;53.526;49.300;2023-09-18T14:39:01;20.80;40.60
67557;DHT22;54387;53.526;49.300;2023-09-18T14:41:28;20.70;40.80
67557;DHT22;54387;53.526;49.300;2023-09-18T14:43:54;20.50;40.90
67557;DHT22;54387;53.526;49.300;2023-09-18T14:46:23;20.40;41.10
67557;DHT22;54387;53.526;49.300;2023-09-18T14:48:49;20.30;41.20
67557;DHT22;54387;53.526;49.300;2023-09-18T14:51:15;20.30;41.60
67557;DHT22;54387;53.526;49.300;2023-09-18T14:53:43;20.10;41.80
67557;DHT22;54387;53.526;49.300;2023-09-18T14:56:09;20.00;42.10
67557;DHT22;54387;53.526;49.300;2023-09-18T14:58:35;19.90;42.20
67557;DHT22;54387;53.526;49.300;2023-09-18T15:01:01;19.80;42.30
67557;DHT22;54387;53.526;49.300;2023-09-18T15:03:28;19.70;42.50
67557;DHT22;54387;53.526;49.300;2023-09-18T15:05:55;19.60;42.60
67557;DHT22;54387;53.526;49.300;2023-09-18T15:08:21;19.50;42.50
67557;DHT22;54387;53.526;49.300;2023-09-18T15:10:47;19.50;42.60
67557;DHT22;54387;53.526;49.300;2023-09-18T15:13:14;19.40;43.50
67557;DHT22;54387;53.526;49.300;2023-09-18T15:15:43;19.40;42.60
67557;DHT22;54387;53.526;49.300;2023-09-18T15:18:09;19.40;42.70
67557;DHT22;54387;53.526;49.300;2023-09-18T15:20:35;19.30;42.90
67557;DHT22;54387;53.526;49.300;2023-09-18T15:23:02;19.20;43.10
67557;DHT22;54387;53.526;49.300;2023-09-18T15:25:28;19.10;43.20
67557;DHT22;54387;53.526;49.300;2023-09-18T15:27:55;19.10;43.30
67557;DHT22;54387;53.526;49.300;2023-09-18T15:30:22;19.10;43.40